sensor_id;sensor_type;location;lat;lon;timestamp;P1;durP1;ratioP1;P2;durP2;ratioP2
27833;SDS011;15200;50.570;7.244;2023-05-19T00:01:37;5.87;;;2.15;;
27833;SDS011;15200;50.570;7.244;2023-05-19T00:04:07;4.30;;;2.25;;
27833;SDS011;15200;50.570;7.244;2023-05-19T00:06:38;5.97;;;2.20;;
27833;SDS011;15200;50.570;7.244;2023-05-19T00:09:07;3.52;;;2.35;;
27833;SDS011;15200;50.570;7.244;2023-05-19T00:11:38;3.87;;;2.37;;
27833;SDS011;15200;50.570;7.244;2023-05-19T00:14:08;6.37;;;2.20;;
27833;SDS011;15200;50.570;7.244;2023-05-19T00:16:36;5.78;;;2.20;;
27833;SDS011;15200;50.570;7.244;2023-05-19T00:19:06;5.90;;;2.40;;
27833;SDS011;15200;50.570;7.244;2023-05-19T00:21:37;4.40;;;2.27;;
27833;SDS011;15200;50.570;7.244;2023-05-19T00:24:06;4.50;;;2.83;;
27833;SDS011;15200;50.570;7.244;2023-05-19T00:26:36;6.15;;;2.52;;
27833;SDS011;15200;50.570;7.244;2023-05-19T00:29:04;3.20;;;2.05;;
27833;SDS011;15200;50.570;7.244;2023-05-19T00:31:34;6.20;;;2.27;;
27833;SDS011;15200;50.570;7.244;2023-05-19T00:34:02;6.65;;;2.60;;
27833;SDS011;15200;50.570;7.244;2023-05-19T00:36:32;6.10;;;2.17;;
27833;SDS011;15200;50.570;7.244;2023-05-19T00:38:59;6.47;;;2.27;;
27833;SDS011;15200;50.570;7.244;2023-05-19T00:41:28;6.80;;;2.20;;
27833;SDS011;15200;50.570;7.244;2023-05-19T00:43:56;3.17;;;2.15;;
27833;SDS011;15200;50.570;7.244;2023-05-19T00:46:25;4.15;;;2.22;;
27833;SDS011;15200;50.570;7.244;2023-05-19T00:48:54;4.10;;;2.20;;
27833;SDS011;15200;50.570;7.244;2023-05-19T00:51:23;4.10;;;1.90;;
27833;SDS011;15200;50.570;7.244;2023-05-19T00:53:51;4.80;;;2.08;;
27833;SDS011;15200;50.570;7.244;2023-05-19T00:56:20;4.78;;;2.25;;
27833;SDS011;15200;50.570;7.244;2023-05-19T00:58:50;5.03;;;2.40;;
27833;SDS011;15200;50.570;7.244;2023-05-19T01:01:18;7.47;;;2.27;;
27833;SDS011;15200;50.570;7.244;2023-05-19T01:03:46;2.67;;;1.87;;
27833;SDS011;15200;50.570;7.244;2023-05-19T01:06:15;4.63;;;2.30;;
27833;SDS011;15200;50.570;7.244;2023-05-19T01:08:44;5.00;;;2.17;;
27833;SDS011;15200;50.570;7.244;2023-05-19T01:11:15;2.87;;;2.07;;
27833;SDS011;15200;50.570;7.244;2023-05-19T01:13:42;5.45;;;2.30;;
27833;SDS011;15200;50.570;7.244;2023-05-19T01:19:02;6.70;;;2.62;;
27833;SDS011;15200;50.570;7.244;2023-05-19T01:21:39;7.65;;;2.65;;
27833;SDS011;15200;50.570;7.244;2023-05-19T01:32:18;6.25;;;2.35;;
27833;SDS011;15200;50.570;7.244;2023-05-19T01:34:48;6.23;;;2.37;;
27833;SDS011;15200;50.570;7.244;2023-05-19T01:37:18;6.72;;;2.55;;
27833;SDS011;15200;50.570;7.244;2023-05-19T01:39:47;6.20;;;2.50;;
27833;SDS011;15200;50.570;7.244;2023-05-19T01:42:17;6.00;;;2.43;;
27833;SDS011;15200;50.570;7.244;2023-05-19T01:44:46;5.13;;;2.20;;
27833;SDS011;15200;50.570;7.244;2023-05-19T01:47:14;5.10;;;2.08;;
27833;SDS011;15200;50.570;7.244;2023-05-19T01:49:44;5.37;;;2.60;;
27833;SDS011;15200;50.570;7.244;2023-05-19T01:52:11;6.40;;;2.58;;
27833;SDS011;15200;50.570;7.244;2023-05-19T01:54:40;6.15;;;2.62;;
27833;SDS011;15200;50.570;7.244;2023-05-19T02:02:25;4.70;;;2.25;;
27833;SDS011;15200;50.570;7.244;2023-05-19T02:04:53;3.55;;;2.45;;
27833;SDS011;15200;50.570;7.244;2023-05-19T02:10:10;6.10;;;2.50;;
27833;SDS011;15200;50.570;7.244;2023-05-19T02:12:37;5.35;;;2.62;;
27833;SDS011;15200;50.570;7.244;2023-05-19T02:15:14;3.85;;;2.52;;
27833;SDS011;15200;50.570;7.244;2023-05-19T02:17:38;7.37;;;2.72;;
27833;SDS011;15200;50.570;7.244;2023-05-19T02:20:09;4.93;;;2.40;;
27833;SDS011;15200;50.570;7.244;2023-05-19T02:22:37;4.35;;;2.35;;
27833;SDS011;15200;50.570;7.244;2023-05-19T02:25:06;9.28;;;2.20;;
27833;SDS011;15200;50.570;7.244;2023-05-19T02:27:35;4.97;;;2.30;;
27833;SDS011;15200;50.570;7.244;2023-05-19T02:30:07;5.15;;;2.55;;
27833;SDS011;15200;50.570;7.244;2023-05-19T02:32:36;4.47;;;2.30;;
27833;SDS011;15200;50.570;7.244;2023-05-19T02:35:03;7.10;;;2.40;;
27833;SDS011;15200;50.570;7.244;2023-05-19T02:37:33;4.17;;;2.67;;
27833;SDS011;15200;50.570;7.244;2023-05-19T02:40:02;4.10;;;2.33;;
27833;SDS011;15200;50.570;7.244;2023-05-19T02:42:30;4.65;;;2.05;;
27833;SDS011;15200;50.570;7.244;2023-05-19T02:44:59;3.80;;;2.13;;
27833;SDS011;15200;50.570;7.244;2023-05-19T02:47:28;4.30;;;2.10;;
27833;SDS011;15200;50.570;7.244;2023-05-19T02:49:58;5.20;;;2.10;;
27833;SDS011;15200;50.570;7.244;2023-05-19T02:52:25;5.92;;;2.50;;
27833;SDS011;15200;50.570;7.244;2023-05-19T02:54:54;3.80;;;2.33;;
27833;SDS011;15200;50.570;7.244;2023-05-19T02:57:23;6.47;;;2.45;;
27833;SDS011;15200;50.570;7.244;2023-05-19T02:59:52;4.90;;;2.25;;
27833;SDS011;15200;50.570;7.244;2023-05-19T03:02:20;4.13;;;2.10;;
27833;SDS011;15200;50.570;7.244;2023-05-19T03:04:49;5.87;;;2.27;;
27833;SDS011;15200;50.570;7.244;2023-05-19T03:07:17;3.57;;;2.03;;
27833;SDS011;15200;50.570;7.244;2023-05-19T03:09:47;6.03;;;2.13;;
27833;SDS011;15200;50.570;7.244;2023-05-19T03:12:17;5.87;;;2.50;;
27833;SDS011;15200;50.570;7.244;2023-05-19T03:14:46;6.28;;;2.50;;
27833;SDS011;15200;50.570;7.244;2023-05-19T03:17:13;3.93;;;2.00;;
27833;SDS011;15200;50.570;7.244;2023-05-19T03:19:42;3.83;;;2.53;;
27833;SDS011;15200;50.570;7.244;2023-05-19T03:22:11;5.40;;;2.27;;
27833;SDS011;15200;50.570;7.244;2023-05-19T03:24:39;3.83;;;2.40;;
27833;SDS011;15200;50.570;7.244;2023-05-19T03:27:08;5.07;;;2.00;;
27833;SDS011;15200;50.570;7.244;2023-05-19T03:29:36;7.37;;;2.93;;
27833;SDS011;15200;50.570;7.244;2023-05-19T03:32:05;4.50;;;2.37;;
27833;SDS011;15200;50.570;7.244;2023-05-19T03:34:34;3.83;;;2.60;;
27833;SDS011;15200;50.570;7.244;2023-05-19T03:37:02;6.77;;;2.40;;
27833;SDS011;15200;50.570;7.244;2023-05-19T03:39:29;5.83;;;2.50;;
27833;SDS011;15200;50.570;7.244;2023-05-19T03:41:59;6.63;;;2.50;;
27833;SDS011;15200;50.570;7.244;2023-05-19T03:44:28;5.83;;;2.50;;
27833;SDS011;15200;50.570;7.244;2023-05-19T03:46:56;9.00;;;3.00;;
27833;SDS011;15200;50.570;7.244;2023-05-19T03:49:23;3.87;;;2.40;;
27833;SDS011;15200;50.570;7.244;2023-05-19T03:51:52;5.22;;;2.60;;
27833;SDS011;15200;50.570;7.244;2023-05-19T03:54:20;6.40;;;2.33;;
27833;SDS011;15200;50.570;7.244;2023-05-19T03:56:48;7.07;;;2.57;;
27833;SDS011;15200;50.570;7.244;2023-05-19T03:59:18;4.65;;;2.35;;
27833;SDS011;15200;50.570;7.244;2023-05-19T04:01:45;3.10;;;2.20;;
27833;SDS011;15200;50.570;7.244;2023-05-19T04:04:16;3.20;;;2.33;;
27833;SDS011;15200;50.570;7.244;2023-05-19T04:06:45;2.80;;;2.40;;
27833;SDS011;15200;50.570;7.244;2023-05-19T04:09:17;4.57;;;2.40;;
27833;SDS011;15200;50.570;7.244;2023-05-19T04:11:46;6.47;;;2.30;;
27833;SDS011;15200;50.570;7.244;2023-05-19T04:14:14;7.23;;;2.50;;
27833;SDS011;15200;50.570;7.244;2023-05-19T04:16:43;4.50;;;2.37;;
27833;SDS011;15200;50.570;7.244;2023-05-19T04:19:12;3.62;;;2.37;;
27833;SDS011;15200;50.570;7.244;2023-05-19T04:21:40;7.50;;;2.77;;
27833;SDS011;15200;50.570;7.244;2023-05-19T04:24:10;5.00;;;2.57;;
27833;SDS011;15200;50.570;7.244;2023-05-19T04:26:37;3.13;;;2.20;;
27833;SDS011;15200;50.570;7.244;2023-05-19T04:29:07;4.60;;;2.40;;
27833;SDS011;15200;50.570;7.244;2023-05-19T04:31:39;4.07;;;2.47;;
27833;SDS011;15200;50.570;7.244;2023-05-19T04:34:07;3.43;;;2.40;;
27833;SDS011;15200;50.570;7.244;2023-05-19T04:36:35;4.17;;;2.53;;
27833;SDS011;15200;50.570;7.244;2023-05-19T04:39:04;8.43;;;2.87;;
27833;SDS011;15200;50.570;7.244;2023-05-19T04:41:37;6.17;;;2.23;;
27833;SDS011;15200;50.570;7.244;2023-05-19T04:44:06;4.87;;;2.70;;
27833;SDS011;15200;50.570;7.244;2023-05-19T04:46:35;9.27;;;2.63;;
27833;SDS011;15200;50.570;7.244;2023-05-19T04:49:04;8.30;;;2.95;;
27833;SDS011;15200;50.570;7.244;2023-05-19T04:51:33;9.57;;;3.13;;
27833;SDS011;15200;50.570;7.244;2023-05-19T04:54:01;5.43;;;2.73;;
27833;SDS011;15200;50.570;7.244;2023-05-19T04:56:30;5.20;;;2.70;;
27833;SDS011;15200;50.570;7.244;2023-05-19T04:58:59;5.43;;;2.90;;
27833;SDS011;15200;50.570;7.244;2023-05-19T05:01:27;5.33;;;2.67;;
27833;SDS011;15200;50.570;7.244;2023-05-19T05:03:57;3.73;;;2.60;;
27833;SDS011;15200;50.570;7.244;2023-05-19T05:06:27;5.30;;;2.80;;
27833;SDS011;15200;50.570;7.244;2023-05-19T05:08:56;7.03;;;2.50;;
27833;SDS011;15200;50.570;7.244;2023-05-19T05:11:26;6.60;;;2.92;;
27833;SDS011;15200;50.570;7.244;2023-05-19T05:13:54;4.17;;;2.80;;
27833;SDS011;15200;50.570;7.244;2023-05-19T05:16:23;7.67;;;3.10;;
27833;SDS011;15200;50.570;7.244;2023-05-19T05:18:53;4.33;;;2.95;;
27833;SDS011;15200;50.570;7.244;2023-05-19T05:21:21;6.30;;;2.70;;
27833;SDS011;15200;50.570;7.244;2023-05-19T05:23:50;10.70;;;3.90;;
27833;SDS011;15200;50.570;7.244;2023-05-19T05:26:19;4.20;;;2.75;;
27833;SDS011;15200;50.570;7.244;2023-05-19T05:28:52;6.50;;;2.80;;
27833;SDS011;15200;50.570;7.244;2023-05-19T05:31:21;5.10;;;2.87;;
27833;SDS011;15200;50.570;7.244;2023-05-19T05:33:49;9.40;;;2.62;;
27833;SDS011;15200;50.570;7.244;2023-05-19T05:36:19;5.13;;;2.90;;
27833;SDS011;15200;50.570;7.244;2023-05-19T05:38:47;5.78;;;3.30;;
27833;SDS011;15200;50.570;7.244;2023-05-19T05:41:15;9.08;;;4.05;;
27833;SDS011;15200;50.570;7.244;2023-05-19T05:43:45;11.63;;;3.12;;
27833;SDS011;15200;50.570;7.244;2023-05-19T05:46:13;12.98;;;3.30;;
27833;SDS011;15200;50.570;7.244;2023-05-19T05:48:43;6.72;;;3.30;;
27833;SDS011;15200;50.570;7.244;2023-05-19T05:51:13;4.33;;;2.50;;
27833;SDS011;15200;50.570;7.244;2023-05-19T05:53:41;5.87;;;2.60;;
27833;SDS011;15200;50.570;7.244;2023-05-19T05:56:12;6.35;;;3.02;;
27833;SDS011;15200;50.570;7.244;2023-05-19T05:58:41;6.00;;;3.40;;
27833;SDS011;15200;50.570;7.244;2023-05-19T06:01:13;6.30;;;3.10;;
27833;SDS011;15200;50.570;7.244;2023-05-19T06:03:42;6.20;;;2.93;;
27833;SDS011;15200;50.570;7.244;2023-05-19T06:06:12;7.92;;;2.72;;
27833;SDS011;15200;50.570;7.244;2023-05-19T06:08:41;6.55;;;2.80;;
27833;SDS011;15200;50.570;7.244;2023-05-19T06:11:08;4.40;;;2.55;;
27833;SDS011;15200;50.570;7.244;2023-05-19T06:13:37;5.37;;;2.67;;
27833;SDS011;15200;50.570;7.244;2023-05-19T06:16:07;6.90;;;2.90;;
27833;SDS011;15200;50.570;7.244;2023-05-19T06:18:35;7.03;;;3.12;;
27833;SDS011;15200;50.570;7.244;2023-05-19T06:21:06;7.75;;;2.75;;
27833;SDS011;15200;50.570;7.244;2023-05-19T06:23:36;8.93;;;2.95;;
27833;SDS011;15200;50.570;7.244;2023-05-19T06:26:06;5.17;;;2.87;;
27833;SDS011;15200;50.570;7.244;2023-05-19T06:28:34;5.87;;;2.52;;
27833;SDS011;15200;50.570;7.244;2023-05-19T06:31:04;5.45;;;2.80;;
27833;SDS011;15200;50.570;7.244;2023-05-19T06:33:33;4.37;;;2.47;;
27833;SDS011;15200;50.570;7.244;2023-05-19T06:36:02;5.20;;;2.50;;
27833;SDS011;15200;50.570;7.244;2023-05-19T06:38:33;3.77;;;2.35;;
27833;SDS011;15200;50.570;7.244;2023-05-19T06:41:01;6.72;;;2.60;;
27833;SDS011;15200;50.570;7.244;2023-05-19T06:43:29;7.30;;;2.92;;
27833;SDS011;15200;50.570;7.244;2023-05-19T06:45:56;5.65;;;3.35;;
27833;SDS011;15200;50.570;7.244;2023-05-19T06:48:24;6.65;;;2.50;;
27833;SDS011;15200;50.570;7.244;2023-05-19T06:50:52;8.35;;;2.60;;
27833;SDS011;15200;50.570;7.244;2023-05-19T06:53:19;4.33;;;2.77;;
27833;SDS011;15200;50.570;7.244;2023-05-19T06:55:47;8.30;;;2.67;;
27833;SDS011;15200;50.570;7.244;2023-05-19T06:58:18;3.33;;;2.20;;
27833;SDS011;15200;50.570;7.244;2023-05-19T07:00:45;5.92;;;2.42;;
27833;SDS011;15200;50.570;7.244;2023-05-19T07:03:15;8.48;;;2.70;;
27833;SDS011;15200;50.570;7.244;2023-05-19T07:05:43;3.87;;;2.10;;
27833;SDS011;15200;50.570;7.244;2023-05-19T07:08:11;4.10;;;2.45;;
27833;SDS011;15200;50.570;7.244;2023-05-19T07:10:41;4.65;;;2.47;;
27833;SDS011;15200;50.570;7.244;2023-05-19T07:13:10;6.95;;;2.30;;
27833;SDS011;15200;50.570;7.244;2023-05-19T07:15:39;8.05;;;2.75;;
27833;SDS011;15200;50.570;7.244;2023-05-19T07:18:07;9.00;;;2.15;;
27833;SDS011;15200;50.570;7.244;2023-05-19T07:20:38;5.92;;;2.20;;
27833;SDS011;15200;50.570;7.244;2023-05-19T07:23:06;2.40;;;1.70;;
27833;SDS011;15200;50.570;7.244;2023-05-19T07:25:35;5.17;;;2.08;;
27833;SDS011;15200;50.570;7.244;2023-05-19T07:28:03;3.55;;;1.85;;
27833;SDS011;15200;50.570;7.244;2023-05-19T07:30:31;10.50;;;1.72;;
27833;SDS011;15200;50.570;7.244;2023-05-19T07:32:59;11.18;;;2.17;;
27833;SDS011;15200;50.570;7.244;2023-05-19T07:35:28;5.45;;;1.90;;
27833;SDS011;15200;50.570;7.244;2023-05-19T07:37:57;3.90;;;1.40;;
27833;SDS011;15200;50.570;7.244;2023-05-19T07:40:25;8.48;;;2.10;;
27833;SDS011;15200;50.570;7.244;2023-05-19T07:42:54;5.58;;;1.85;;
27833;SDS011;15200;50.570;7.244;2023-05-19T07:45:22;7.37;;;1.92;;
27833;SDS011;15200;50.570;7.244;2023-05-19T07:47:52;5.60;;;1.90;;
27833;SDS011;15200;50.570;7.244;2023-05-19T07:50:19;3.27;;;1.55;;
27833;SDS011;15200;50.570;7.244;2023-05-19T07:52:49;5.25;;;2.08;;
27833;SDS011;15200;50.570;7.244;2023-05-19T07:55:18;5.62;;;1.87;;
27833;SDS011;15200;50.570;7.244;2023-05-19T07:57:49;5.35;;;1.50;;
27833;SDS011;15200;50.570;7.244;2023-05-19T08:00:18;6.20;;;1.50;;
27833;SDS011;15200;50.570;7.244;2023-05-19T08:02:46;8.95;;;1.87;;
27833;SDS011;15200;50.570;7.244;2023-05-19T08:05:14;6.60;;;1.98;;
27833;SDS011;15200;50.570;7.244;2023-05-19T08:07:42;5.90;;;2.00;;
27833;SDS011;15200;50.570;7.244;2023-05-19T08:10:10;3.33;;;1.77;;
27833;SDS011;15200;50.570;7.244;2023-05-19T08:12:40;8.48;;;1.52;;
27833;SDS011;15200;50.570;7.244;2023-05-19T08:15:09;2.75;;;1.47;;
27833;SDS011;15200;50.570;7.244;2023-05-19T08:17:42;6.17;;;2.27;;
27833;SDS011;15200;50.570;7.244;2023-05-19T08:20:11;7.17;;;1.77;;
27833;SDS011;15200;50.570;7.244;2023-05-19T08:22:41;7.95;;;1.90;;
27833;SDS011;15200;50.570;7.244;2023-05-19T08:25:09;6.17;;;1.70;;
27833;SDS011;15200;50.570;7.244;2023-05-19T08:27:37;4.15;;;1.87;;
27833;SDS011;15200;50.570;7.244;2023-05-19T08:30:06;7.40;;;1.60;;
27833;SDS011;15200;50.570;7.244;2023-05-19T08:32:34;5.25;;;1.82;;
27833;SDS011;15200;50.570;7.244;2023-05-19T08:35:02;3.33;;;1.70;;
27833;SDS011;15200;50.570;7.244;2023-05-19T08:37:31;3.25;;;1.57;;
27833;SDS011;15200;50.570;7.244;2023-05-19T08:40:02;5.80;;;1.98;;
27833;SDS011;15200;50.570;7.244;2023-05-19T08:42:35;5.37;;;1.87;;
27833;SDS011;15200;50.570;7.244;2023-05-19T08:45:03;4.70;;;1.62;;
27833;SDS011;15200;50.570;7.244;2023-05-19T08:47:32;7.30;;;1.80;;
27833;SDS011;15200;50.570;7.244;2023-05-19T08:50:04;4.03;;;1.75;;
27833;SDS011;15200;50.570;7.244;2023-05-19T08:58:05;3.25;;;1.62;;
27833;SDS011;15200;50.570;7.244;2023-05-19T09:00:34;4.90;;;1.70;;
27833;SDS011;15200;50.570;7.244;2023-05-19T09:03:01;8.73;;;1.62;;
27833;SDS011;15200;50.570;7.244;2023-05-19T09:05:30;19.45;;;1.95;;
27833;SDS011;15200;50.570;7.244;2023-05-19T09:08:00;5.12;;;1.37;;
27833;SDS011;15200;50.570;7.244;2023-05-19T09:10:30;7.87;;;1.80;;
27833;SDS011;15200;50.570;7.244;2023-05-19T09:13:00;6.47;;;1.57;;
27833;SDS011;15200;50.570;7.244;2023-05-19T09:15:27;4.92;;;1.75;;
27833;SDS011;15200;50.570;7.244;2023-05-19T09:18:11;4.33;;;1.70;;
27833;SDS011;15200;50.570;7.244;2023-05-19T09:20:40;4.33;;;1.35;;
27833;SDS011;15200;50.570;7.244;2023-05-19T09:23:11;7.53;;;2.10;;
27833;SDS011;15200;50.570;7.244;2023-05-19T09:25:51;7.08;;;1.85;;
27833;SDS011;15200;50.570;7.244;2023-05-19T09:28:11;9.68;;;2.25;;
27833;SDS011;15200;50.570;7.244;2023-05-19T09:30:39;3.95;;;1.62;;
27833;SDS011;15200;50.570;7.244;2023-05-19T09:33:08;6.20;;;1.92;;
27833;SDS011;15200;50.570;7.244;2023-05-19T09:35:37;10.05;;;2.98;;
27833;SDS011;15200;50.570;7.244;2023-05-19T09:38:06;5.03;;;1.60;;
27833;SDS011;15200;50.570;7.244;2023-05-19T09:40:33;5.80;;;1.75;;
27833;SDS011;15200;50.570;7.244;2023-05-19T09:43:04;4.33;;;1.50;;
27833;SDS011;15200;50.570;7.244;2023-05-19T09:45:33;9.78;;;1.40;;
27833;SDS011;15200;50.570;7.244;2023-05-19T09:48:05;5.78;;;1.45;;
27833;SDS011;15200;50.570;7.244;2023-05-19T09:50:34;4.10;;;1.50;;
27833;SDS011;15200;50.570;7.244;2023-05-19T09:53:03;5.92;;;1.80;;
27833;SDS011;15200;50.570;7.244;2023-05-19T09:55:31;17.17;;;4.35;;
27833;SDS011;15200;50.570;7.244;2023-05-19T09:58:02;9.85;;;3.70;;
27833;SDS011;15200;50.570;7.244;2023-05-19T10:00:32;9.78;;;1.90;;
27833;SDS011;15200;50.570;7.244;2023-05-19T10:03:00;11.88;;;3.75;;
27833;SDS011;15200;50.570;7.244;2023-05-19T10:05:31;4.45;;;1.55;;
27833;SDS011;15200;50.570;7.244;2023-05-19T10:08:01;10.25;;;2.50;;
27833;SDS011;15200;50.570;7.244;2023-05-19T10:10:31;4.35;;;1.22;;
27833;SDS011;15200;50.570;7.244;2023-05-19T10:13:00;3.95;;;1.60;;
27833;SDS011;15200;50.570;7.244;2023-05-19T10:15:31;5.37;;;1.60;;
27833;SDS011;15200;50.570;7.244;2023-05-19T10:17:58;2.83;;;1.52;;
27833;SDS011;15200;50.570;7.244;2023-05-19T10:20:29;4.12;;;1.30;;
27833;SDS011;15200;50.570;7.244;2023-05-19T10:23:01;4.95;;;1.82;;
27833;SDS011;15200;50.570;7.244;2023-05-19T10:25:32;3.58;;;1.47;;
27833;SDS011;15200;50.570;7.244;2023-05-19T10:28:04;5.30;;;1.30;;
27833;SDS011;15200;50.570;7.244;2023-05-19T10:30:44;1.92;;;1.07;;
27833;SDS011;15200;50.570;7.244;2023-05-19T10:33:09;4.37;;;1.12;;
27833;SDS011;15200;50.570;7.244;2023-05-19T10:38:26;4.37;;;1.50;;
27833;SDS011;15200;50.570;7.244;2023-05-19T10:43:29;3.45;;;1.50;;
27833;SDS011;15200;50.570;7.244;2023-05-19T10:45:53;4.17;;;1.70;;
27833;SDS011;15200;50.570;7.244;2023-05-19T10:48:23;2.33;;;1.10;;
27833;SDS011;15200;50.570;7.244;2023-05-19T10:50:53;4.65;;;1.50;;
27833;SDS011;15200;50.570;7.244;2023-05-19T10:53:28;3.55;;;1.67;;
27833;SDS011;15200;50.570;7.244;2023-05-19T10:55:54;3.08;;;1.12;;
27833;SDS011;15200;50.570;7.244;2023-05-19T11:01:13;4.47;;;1.40;;
27833;SDS011;15200;50.570;7.244;2023-05-19T11:06:30;3.62;;;1.37;;
27833;SDS011;15200;50.570;7.244;2023-05-19T11:08:59;8.23;;;1.70;;
27833;SDS011;15200;50.570;7.244;2023-05-19T11:11:41;6.10;;;1.65;;
27833;SDS011;15200;50.570;7.244;2023-05-19T11:13:59;4.47;;;1.50;;
27833;SDS011;15200;50.570;7.244;2023-05-19T11:16:33;3.15;;;1.47;;
27833;SDS011;15200;50.570;7.244;2023-05-19T11:19:01;4.22;;;1.10;;
27833;SDS011;15200;50.570;7.244;2023-05-19T11:21:48;3.98;;;1.35;;
27833;SDS011;15200;50.570;7.244;2023-05-19T11:24:42;4.05;;;1.27;;
27833;SDS011;15200;50.570;7.244;2023-05-19T11:26:51;3.17;;;1.30;;
27833;SDS011;15200;50.570;7.244;2023-05-19T11:29:20;5.15;;;1.32;;
27833;SDS011;15200;50.570;7.244;2023-05-19T11:31:50;3.25;;;1.45;;
27833;SDS011;15200;50.570;7.244;2023-05-19T11:34:17;4.62;;;1.32;;
27833;SDS011;15200;50.570;7.244;2023-05-19T11:36:46;6.03;;;1.50;;
27833;SDS011;15200;50.570;7.244;2023-05-19T11:39:17;5.62;;;1.60;;
27833;SDS011;15200;50.570;7.244;2023-05-19T11:41:45;5.42;;;1.47;;
27833;SDS011;15200;50.570;7.244;2023-05-19T11:44:13;3.75;;;1.50;;
27833;SDS011;15200;50.570;7.244;2023-05-19T11:46:42;4.08;;;1.62;;
27833;SDS011;15200;50.570;7.244;2023-05-19T11:49:11;4.67;;;1.45;;
27833;SDS011;15200;50.570;7.244;2023-05-19T11:51:45;8.08;;;1.30;;
27833;SDS011;15200;50.570;7.244;2023-05-19T11:54:10;4.55;;;1.60;;
27833;SDS011;15200;50.570;7.244;2023-05-19T11:56:42;2.65;;;1.25;;
27833;SDS011;15200;50.570;7.244;2023-05-19T11:59:11;4.25;;;1.17;;
27833;SDS011;15200;50.570;7.244;2023-05-19T12:01:40;4.45;;;1.67;;
27833;SDS011;15200;50.570;7.244;2023-05-19T12:04:08;6.42;;;1.52;;
27833;SDS011;15200;50.570;7.244;2023-05-19T12:06:36;4.67;;;1.52;;
27833;SDS011;15200;50.570;7.244;2023-05-19T12:09:07;4.85;;;1.27;;
27833;SDS011;15200;50.570;7.244;2023-05-19T12:11:36;3.37;;;1.45;;
27833;SDS011;15200;50.570;7.244;2023-05-19T12:14:04;3.52;;;1.20;;
27833;SDS011;15200;50.570;7.244;2023-05-19T12:16:34;5.17;;;1.32;;
27833;SDS011;15200;50.570;7.244;2023-05-19T12:19:05;2.75;;;1.40;;
27833;SDS011;15200;50.570;7.244;2023-05-19T12:21:32;7.40;;;3.17;;
27833;SDS011;15200;50.570;7.244;2023-05-19T12:24:03;3.70;;;1.20;;
27833;SDS011;15200;50.570;7.244;2023-05-19T12:26:34;4.17;;;1.50;;
27833;SDS011;15200;50.570;7.244;2023-05-19T12:29:03;3.35;;;1.60;;
27833;SDS011;15200;50.570;7.244;2023-05-19T12:31:33;2.40;;;1.57;;
27833;SDS011;15200;50.570;7.244;2023-05-19T12:34:03;3.77;;;1.25;;
27833;SDS011;15200;50.570;7.244;2023-05-19T12:36:33;10.63;;;1.57;;
27833;SDS011;15200;50.570;7.244;2023-05-19T12:39:03;5.75;;;1.42;;
27833;SDS011;15200;50.570;7.244;2023-05-19T12:41:33;3.83;;;1.30;;
27833;SDS011;15200;50.570;7.244;2023-05-19T12:44:11;2.42;;;1.10;;
27833;SDS011;15200;50.570;7.244;2023-05-19T12:46:33;6.17;;;1.20;;
27833;SDS011;15200;50.570;7.244;2023-05-19T12:49:02;5.35;;;1.60;;
27833;SDS011;15200;50.570;7.244;2023-05-19T12:51:30;4.95;;;1.70;;
27833;SDS011;15200;50.570;7.244;2023-05-19T12:54:01;2.87;;;1.40;;
27833;SDS011;15200;50.570;7.244;2023-05-19T12:56:29;4.92;;;1.70;;
27833;SDS011;15200;50.570;7.244;2023-05-19T12:58:59;2.50;;;1.35;;
27833;SDS011;15200;50.570;7.244;2023-05-19T13:01:27;1.92;;;1.10;;
27833;SDS011;15200;50.570;7.244;2023-05-19T13:03:56;3.85;;;1.50;;
27833;SDS011;15200;50.570;7.244;2023-05-19T13:06:26;2.80;;;0.90;;
27833;SDS011;15200;50.570;7.244;2023-05-19T13:08:53;3.70;;;1.60;;
27833;SDS011;15200;50.570;7.244;2023-05-19T13:11:22;35.28;;;2.92;;
27833;SDS011;15200;50.570;7.244;2023-05-19T13:13:51;1.90;;;1.22;;
27833;SDS011;15200;50.570;7.244;2023-05-19T13:16:19;4.80;;;1.30;;
27833;SDS011;15200;50.570;7.244;2023-05-19T13:18:46;3.52;;;1.40;;
27833;SDS011;15200;50.570;7.244;2023-05-19T13:21:16;6.20;;;1.47;;
27833;SDS011;15200;50.570;7.244;2023-05-19T13:23:44;3.17;;;1.37;;
27833;SDS011;15200;50.570;7.244;2023-05-19T13:26:13;2.52;;;1.12;;
27833;SDS011;15200;50.570;7.244;2023-05-19T13:28:42;1.90;;;1.22;;
27833;SDS011;15200;50.570;7.244;2023-05-19T13:31:09;4.25;;;1.65;;
27833;SDS011;15200;50.570;7.244;2023-05-19T13:33:39;4.03;;;1.10;;
27833;SDS011;15200;50.570;7.244;2023-05-19T13:36:07;2.95;;;1.25;;
27833;SDS011;15200;50.570;7.244;2023-05-19T13:38:35;3.20;;;1.47;;
27833;SDS011;15200;50.570;7.244;2023-05-19T13:41:03;2.35;;;1.20;;
27833;SDS011;15200;50.570;7.244;2023-05-19T13:43:32;2.90;;;1.50;;
27833;SDS011;15200;50.570;7.244;2023-05-19T13:46:00;1.52;;;1.00;;
27833;SDS011;15200;50.570;7.244;2023-05-19T13:48:27;2.17;;;1.17;;
27833;SDS011;15200;50.570;7.244;2023-05-19T13:50:56;10.23;;;2.00;;
27833;SDS011;15200;50.570;7.244;2023-05-19T13:53:25;3.47;;;1.55;;
27833;SDS011;15200;50.570;7.244;2023-05-19T13:55:55;2.75;;;1.40;;
27833;SDS011;15200;50.570;7.244;2023-05-19T13:58:25;2.33;;;1.20;;
27833;SDS011;15200;50.570;7.244;2023-05-19T14:00:54;10.82;;;1.62;;
27833;SDS011;15200;50.570;7.244;2023-05-19T14:03:23;3.67;;;1.30;;
27833;SDS011;15200;50.570;7.244;2023-05-19T14:05:54;4.22;;;1.30;;
27833;SDS011;15200;50.570;7.244;2023-05-19T14:08:21;3.05;;;1.30;;
27833;SDS011;15200;50.570;7.244;2023-05-19T14:10:51;4.33;;;1.35;;
27833;SDS011;15200;50.570;7.244;2023-05-19T14:13:18;4.00;;;1.50;;
27833;SDS011;15200;50.570;7.244;2023-05-19T14:15:48;3.72;;;1.50;;
27833;SDS011;15200;50.570;7.244;2023-05-19T14:18:19;4.67;;;1.12;;
27833;SDS011;15200;50.570;7.244;2023-05-19T14:20:49;3.12;;;1.17;;
27833;SDS011;15200;50.570;7.244;2023-05-19T14:23:17;2.37;;;1.00;;
27833;SDS011;15200;50.570;7.244;2023-05-19T14:25:48;3.42;;;1.30;;
27833;SDS011;15200;50.570;7.244;2023-05-19T14:28:18;3.87;;;1.25;;
27833;SDS011;15200;50.570;7.244;2023-05-19T14:30:46;3.40;;;1.30;;
27833;SDS011;15200;50.570;7.244;2023-05-19T14:33:17;2.77;;;1.50;;
27833;SDS011;15200;50.570;7.244;2023-05-19T14:35:46;7.35;;;1.37;;
27833;SDS011;15200;50.570;7.244;2023-05-19T14:38:16;3.30;;;1.50;;
27833;SDS011;15200;50.570;7.244;2023-05-19T14:40:44;4.70;;;1.45;;
27833;SDS011;15200;50.570;7.244;2023-05-19T14:43:13;2.17;;;1.20;;
27833;SDS011;15200;50.570;7.244;2023-05-19T14:45:44;3.52;;;1.10;;
27833;SDS011;15200;50.570;7.244;2023-05-19T14:48:14;1.98;;;1.27;;
27833;SDS011;15200;50.570;7.244;2023-05-19T14:50:42;3.58;;;1.10;;
27833;SDS011;15200;50.570;7.244;2023-05-19T14:53:10;1.35;;;0.98;;
27833;SDS011;15200;50.570;7.244;2023-05-19T14:55:40;2.22;;;1.20;;
27833;SDS011;15200;50.570;7.244;2023-05-19T14:58:11;8.03;;;1.60;;
27833;SDS011;15200;50.570;7.244;2023-05-19T15:00:42;2.45;;;1.12;;
27833;SDS011;15200;50.570;7.244;2023-05-19T15:03:12;1.62;;;1.20;;
27833;SDS011;15200;50.570;7.244;2023-05-19T15:05:39;2.45;;;1.15;;
27833;SDS011;15200;50.570;7.244;2023-05-19T15:08:09;2.83;;;1.10;;
27833;SDS011;15200;50.570;7.244;2023-05-19T15:10:36;3.02;;;1.32;;
27833;SDS011;15200;50.570;7.244;2023-05-19T15:13:07;3.25;;;1.27;;
27833;SDS011;15200;50.570;7.244;2023-05-19T15:15:38;2.67;;;1.30;;
27833;SDS011;15200;50.570;7.244;2023-05-19T15:18:05;3.15;;;1.20;;
27833;SDS011;15200;50.570;7.244;2023-05-19T15:20:37;4.80;;;1.30;;
27833;SDS011;15200;50.570;7.244;2023-05-19T15:23:04;3.45;;;1.27;;
27833;SDS011;15200;50.570;7.244;2023-05-19T15:25:34;5.47;;;1.02;;
27833;SDS011;15200;50.570;7.244;2023-05-19T15:28:06;1.92;;;1.02;;
27833;SDS011;15200;50.570;7.244;2023-05-19T15:30:36;1.60;;;1.00;;
27833;SDS011;15200;50.570;7.244;2023-05-19T15:33:05;1.67;;;1.10;;
27833;SDS011;15200;50.570;7.244;2023-05-19T15:35:37;7.33;;;3.50;;